createdAt,value
2022-10-16T00:00:14.283Z,9.26
2022-10-16T00:01:14.097Z,8.84
2022-10-16T00:02:10.818Z,8.98
2022-10-16T00:03:08.430Z,9.04
2022-10-16T00:04:05.361Z,9.03
2022-10-16T00:05:02.036Z,9.04
2022-10-16T00:06:01.777Z,9.17
2022-10-16T00:06:58.484Z,8.92
2022-10-16T00:07:55.265Z,9.20
2022-10-16T00:08:52.887Z,8.67
2022-10-16T00:09:49.695Z,8.95
2022-10-16T00:10:46.377Z,9.24
2022-10-16T00:11:43.307Z,8.99
2022-10-16T00:12:40.024Z,8.62
2022-10-16T00:13:38.651Z,8.03
2022-10-16T00:14:35.390Z,8.96
2022-10-16T00:15:37.221Z,8.49
2022-10-16T00:16:35.009Z,8.99
2022-10-16T00:17:31.819Z,8.90
2022-10-16T00:18:29.368Z,7.57
2022-10-16T00:19:26.034Z,8.60
2022-10-16T00:20:22.714Z,8.65
2022-10-16T00:21:22.771Z,8.38
2022-10-16T00:22:19.508Z,8.61
2022-10-16T00:23:16.558Z,8.65
2022-10-16T00:24:13.503Z,8.58
2022-10-16T00:25:10.517Z,8.63
2022-10-16T00:26:10.713Z,8.09
2022-10-16T00:27:07.405Z,8.20
2022-10-16T00:28:04.189Z,8.55
2022-10-16T00:29:00.976Z,8.70
2022-10-16T00:30:59.930Z,8.66
2022-10-16T00:31:56.669Z,8.68
2022-10-16T00:32:53.354Z,8.66
2022-10-16T00:33:50.801Z,8.66
2022-10-16T00:34:47.858Z,8.69
2022-10-16T00:35:44.755Z,8.83
2022-10-16T00:36:41.451Z,8.89
2022-10-16T00:37:38.188Z,8.72
2022-10-16T00:38:35.480Z,8.59
2022-10-16T00:39:32.142Z,7.98
2022-10-16T00:40:29.336Z,8.94
2022-10-16T00:41:26.707Z,9.15
2022-10-16T00:42:23.715Z,9.03
2022-10-16T00:43:41.141Z,8.69
2022-10-16T00:44:57.699Z,7.70
2022-10-16T00:45:54.474Z,8.54
2022-10-16T00:46:52.051Z,8.48
2022-10-16T00:47:52.478Z,8.52
2022-10-16T00:49:00.692Z,8.72
2022-10-16T00:50:14.989Z,8.40
2022-10-16T00:51:11.943Z,8.68
2022-10-16T00:52:09.105Z,8.78
2022-10-16T00:53:05.954Z,8.37
2022-10-16T00:54:07.417Z,8.59
2022-10-16T00:55:07.247Z,8.56
2022-10-16T00:56:04.923Z,8.24
2022-10-16T00:57:05.976Z,8.35
2022-10-16T00:58:02.700Z,8.48
2022-10-16T00:59:04.789Z,8.48
2022-10-16T01:00:03.611Z,8.04
2022-10-16T01:01:00.545Z,8.76
2022-10-16T01:01:59.330Z,8.52
2022-10-16T01:02:58.679Z,8.74
2022-10-16T01:03:55.357Z,7.73
2022-10-16T01:04:55.388Z,8.59
2022-10-16T01:06:16.008Z,8.43
2022-10-16T01:07:25.799Z,8.29
2022-10-16T01:08:36.298Z,8.12
2022-10-16T01:10:10.355Z,8.32
2022-10-16T01:11:25.727Z,8.39
2022-10-16T01:12:51.834Z,8.25
2022-10-16T01:13:55.986Z,8.16
2022-10-16T01:15:11.484Z,8.03
2022-10-16T01:16:10.925Z,8.24
2022-10-16T01:17:34.027Z,8.37
2022-10-16T01:18:42.742Z,8.32
2022-10-16T01:19:39.425Z,8.48
2022-10-16T01:21:11.661Z,8.46
2022-10-16T01:22:10.738Z,8.27
2022-10-16T01:23:37.305Z,8.28
2022-10-16T01:24:41.019Z,8.17
2022-10-16T01:25:43.666Z,8.13
2022-10-16T01:27:12.232Z,8.20
2022-10-16T01:28:14.218Z,8.23
2022-10-16T01:29:24.921Z,8.38
2022-10-16T01:30:30.106Z,8.33
2022-10-16T01:31:32.944Z,8.40
2022-10-16T01:32:42.967Z,7.66
2022-10-16T01:33:46.167Z,7.96
2022-10-16T01:34:51.930Z,8.14
2022-10-16T01:36:08.034Z,7.67
2022-10-16T01:37:15.524Z,8.16
2022-10-16T01:38:18.097Z,8.24
2022-10-16T01:39:21.250Z,8.34
2022-10-16T01:40:21.989Z,8.25
2022-10-16T01:41:39.988Z,8.22
2022-10-16T01:42:47.383Z,8.08
2022-10-16T01:43:54.199Z,7.16
2022-10-16T01:44:54.062Z,7.99
2022-10-16T01:45:51.030Z,8.07
2022-10-16T01:46:52.792Z,8.10
2022-10-16T01:47:52.658Z,8.13
2022-10-16T01:48:52.997Z,7.76
2022-10-16T01:49:52.422Z,8.30
2022-10-16T01:51:02.137Z,8.36
2022-10-16T01:52:04.198Z,8.47
2022-10-16T01:53:05.716Z,7.55
2022-10-16T01:54:05.218Z,7.63
2022-10-16T01:55:06.340Z,7.58
2022-10-16T01:56:09.590Z,8.43
2022-10-16T01:57:09.838Z,8.18
2022-10-16T01:58:10.070Z,7.69
2022-10-16T01:59:12.763Z,7.94
2022-10-16T02:00:14.750Z,7.77
2022-10-16T02:02:21.449Z,8.12
2022-10-16T02:03:20.915Z,7.97
2022-10-16T02:04:38.634Z,7.94
2022-10-16T02:05:39.889Z,8.03
2022-10-16T02:06:37.036Z,8.00
2022-10-16T02:07:33.852Z,7.96
2022-10-16T02:08:32.265Z,7.80
2022-10-16T02:09:31.598Z,7.56
2022-10-16T02:10:32.547Z,7.82
2022-10-16T02:11:29.771Z,7.89
2022-10-16T02:12:34.079Z,8.06
2022-10-16T02:13:49.515Z,8.09
2022-10-16T02:14:46.198Z,8.00
2022-10-16T02:15:43.050Z,7.60
2022-10-16T02:16:43.398Z,7.61
2022-10-16T02:17:40.205Z,8.04
2022-10-16T02:18:37.083Z,7.92
2022-10-16T02:19:33.816Z,7.92
2022-10-16T02:20:37.833Z,7.92
2022-10-16T02:21:50.739Z,7.98
2022-10-16T02:22:51.422Z,7.85
2022-10-16T02:24:18.822Z,7.54
2022-10-16T02:25:31.161Z,7.84
2022-10-16T02:26:43.864Z,7.74
2022-10-16T02:28:07.024Z,8.02
2022-10-16T02:29:11.977Z,7.86
2022-10-16T02:30:29.944Z,7.87
2022-10-16T02:31:35.151Z,8.10
2022-10-16T02:32:35.610Z,7.82
2022-10-16T02:33:34.971Z,8.00
2022-10-16T02:34:34.778Z,7.55
2022-10-16T02:35:33.465Z,7.76
2022-10-16T02:36:30.953Z,7.95
2022-10-16T02:37:29.636Z,7.92
2022-10-16T02:38:27.862Z,7.49
2022-10-16T02:39:27.365Z,7.82
2022-10-16T02:40:25.571Z,7.85
2022-10-16T02:41:24.750Z,7.44
2022-10-16T02:42:21.435Z,7.50
2022-10-16T02:43:18.678Z,7.76
2022-10-16T02:44:15.383Z,7.81
2022-10-16T02:45:12.547Z,7.58
2022-10-16T02:46:09.275Z,7.73
2022-10-16T02:47:06.098Z,7.92
2022-10-16T02:48:03.087Z,8.04
2022-10-16T02:48:59.757Z,7.42
2022-10-16T02:49:56.495Z,8.08
2022-10-16T02:50:53.190Z,7.91
2022-10-16T02:51:49.900Z,6.66
2022-10-16T02:52:46.702Z,7.75
2022-10-16T02:53:43.381Z,7.64
2022-10-16T02:54:40.070Z,7.31
2022-10-16T02:55:36.746Z,7.90
2022-10-16T02:56:33.485Z,7.84
2022-10-16T02:57:30.341Z,7.80
2022-10-16T02:58:27.052Z,8.02
2022-10-16T02:59:23.731Z,7.94
2022-10-16T03:00:20.613Z,7.87
2022-10-16T03:01:17.889Z,7.88
2022-10-16T03:02:14.773Z,7.82
2022-10-16T03:03:11.457Z,7.76
2022-10-16T03:04:08.160Z,7.78
2022-10-16T03:05:05.757Z,7.42
2022-10-16T03:06:03.804Z,7.94
2022-10-16T03:07:00.529Z,7.70
2022-10-16T03:07:57.203Z,7.64
2022-10-16T03:08:53.950Z,7.75
2022-10-16T03:09:50.653Z,7.73
2022-10-16T03:10:47.348Z,7.65
2022-10-16T03:11:44.025Z,7.60
2022-10-16T03:12:40.705Z,7.67
2022-10-16T03:13:37.606Z,7.73
2022-10-16T03:14:35.150Z,7.91
2022-10-16T03:15:31.980Z,7.72
2022-10-16T03:16:28.746Z,7.71
2022-10-16T03:17:26.630Z,7.69
2022-10-16T03:18:23.734Z,7.48
2022-10-16T03:19:20.538Z,7.46
2022-10-16T03:20:17.284Z,7.83
2022-10-16T03:21:13.960Z,7.74
2022-10-16T03:22:10.671Z,7.06
2022-10-16T03:23:09.134Z,7.50
2022-10-16T03:24:06.244Z,7.88
2022-10-16T03:25:03.172Z,7.45
2022-10-16T03:26:00.107Z,7.99
2022-10-16T03:26:56.816Z,7.96
2022-10-16T03:27:53.570Z,7.92
2022-10-16T03:28:50.306Z,7.82
2022-10-16T03:29:47.088Z,7.35
2022-10-16T03:30:45.160Z,7.25
2022-10-16T03:31:41.842Z,7.48
2022-10-16T03:32:38.540Z,7.50
2022-10-16T03:33:35.249Z,7.37
2022-10-16T03:34:31.953Z,7.55
2022-10-16T03:35:28.808Z,7.68
2022-10-16T03:36:25.520Z,7.80
2022-10-16T03:37:22.285Z,7.48
2022-10-16T03:38:18.950Z,7.62
2022-10-16T03:39:15.759Z,7.18
2022-10-16T03:40:12.685Z,6.59
2022-10-16T03:41:09.362Z,7.42
2022-10-16T03:42:06.154Z,7.46
2022-10-16T03:43:02.954Z,7.29
2022-10-16T03:43:59.710Z,7.61
2022-10-16T03:44:56.416Z,7.68
2022-10-16T03:45:53.106Z,7.74
2022-10-16T03:46:49.806Z,7.66
2022-10-16T03:47:46.513Z,7.69
2022-10-16T03:48:43.189Z,7.48
2022-10-16T03:49:39.902Z,7.55
2022-10-16T03:50:36.622Z,7.24
2022-10-16T03:51:33.358Z,7.56
2022-10-16T03:52:30.062Z,7.53
2022-10-16T03:53:26.781Z,7.40
2022-10-16T03:54:23.515Z,7.58
2022-10-16T03:55:20.198Z,7.50
2022-10-16T03:56:16.886Z,7.55
2022-10-16T03:57:13.586Z,7.51
2022-10-16T03:58:10.425Z,7.47
2022-10-16T03:59:07.114Z,7.58
2022-10-16T04:00:04.450Z,7.66
2022-10-16T04:01:01.202Z,7.31
2022-10-16T04:01:57.866Z,7.15
2022-10-16T04:02:54.714Z,7.17
2022-10-16T04:03:51.429Z,7.03
2022-10-16T04:04:48.106Z,7.15
2022-10-16T04:05:44.769Z,7.09
2022-10-16T04:06:41.514Z,7.20
2022-10-16T04:07:38.733Z,7.33
2022-10-16T04:08:37.523Z,7.18
2022-10-16T04:09:34.614Z,7.30
2022-10-16T04:10:31.311Z,7.27
2022-10-16T04:11:28.442Z,7.11
2022-10-16T04:12:25.361Z,7.16
2022-10-16T04:13:22.191Z,7.26
2022-10-16T04:14:18.898Z,6.96
2022-10-16T04:15:15.686Z,7.10
2022-10-16T04:16:12.454Z,7.11
2022-10-16T04:17:09.178Z,7.13
2022-10-16T04:18:06.934Z,6.52
2022-10-16T04:19:04.147Z,7.35
2022-10-16T04:20:00.837Z,6.95
2022-10-16T04:20:57.529Z,7.11
2022-10-16T04:21:54.225Z,7.50
2022-10-16T04:22:50.982Z,7.10
2022-10-16T04:23:47.659Z,7.32
2022-10-16T04:24:44.337Z,7.39
2022-10-16T04:25:42.163Z,6.95
2022-10-16T04:26:39.182Z,6.97
2022-10-16T04:27:35.924Z,6.97
2022-10-16T04:28:32.631Z,7.19
2022-10-16T04:29:29.355Z,7.26
2022-10-16T04:30:26.156Z,6.98
2022-10-16T04:31:23.380Z,5.68
2022-10-16T04:32:20.057Z,7.03
2022-10-16T04:33:16.828Z,7.10
2022-10-16T04:34:13.534Z,7.27
2022-10-16T04:35:10.226Z,7.36
2022-10-16T04:36:06.915Z,6.67
2022-10-16T04:37:03.635Z,7.48
2022-10-16T04:38:00.371Z,7.14
2022-10-16T04:38:57.125Z,7.01
2022-10-16T04:39:54.577Z,7.48
2022-10-16T04:40:51.490Z,7.39
2022-10-16T04:41:48.171Z,7.41
2022-10-16T04:42:44.982Z,7.28
2022-10-16T04:43:41.715Z,7.16
2022-10-16T04:44:38.390Z,7.39
2022-10-16T04:45:35.105Z,7.18
2022-10-16T04:46:31.810Z,7.02
2022-10-16T04:47:28.820Z,6.79
2022-10-16T04:48:25.712Z,6.75
2022-10-16T04:49:22.497Z,6.67
2022-10-16T04:50:19.186Z,6.79
2022-10-16T04:51:15.916Z,6.96
2022-10-16T04:52:12.610Z,6.88
2022-10-16T04:53:09.599Z,6.95
2022-10-16T04:54:06.310Z,6.46
2022-10-16T04:55:03.844Z,6.99
2022-10-16T04:56:00.537Z,6.55
2022-10-16T04:56:57.207Z,7.58
2022-10-16T04:57:53.898Z,6.98
2022-10-16T04:58:50.649Z,7.20
2022-10-16T04:59:47.373Z,7.24
2022-10-16T05:00:45.418Z,7.31
2022-10-16T05:01:42.293Z,6.99
2022-10-16T05:02:39.090Z,7.42
2022-10-16T05:03:35.905Z,7.30
2022-10-16T05:04:32.613Z,7.39
2022-10-16T05:05:29.301Z,7.57
2022-10-16T05:06:25.973Z,7.60
2022-10-16T05:07:22.758Z,7.12
2022-10-16T05:08:19.577Z,7.42
2022-10-16T05:09:16.271Z,7.40
2022-10-16T05:10:12.986Z,7.36
2022-10-16T05:11:09.641Z,7.33
2022-10-16T05:12:06.316Z,7.33
2022-10-16T05:13:03.010Z,7.37
2022-10-16T05:13:59.765Z,7.63
2022-10-16T05:14:59.630Z,7.13
2022-10-16T05:15:56.559Z,7.53
2022-10-16T05:16:53.335Z,7.62
2022-10-16T05:17:53.870Z,6.88
2022-10-16T05:18:53.212Z,7.69
2022-10-16T05:19:52.849Z,7.67
2022-10-16T05:20:49.562Z,7.44
2022-10-16T05:21:46.258Z,7.44
2022-10-16T05:22:42.910Z,7.40
2022-10-16T05:23:39.622Z,7.63
2022-10-16T05:24:36.310Z,7.12
2022-10-16T05:25:33.045Z,7.15
2022-10-16T05:26:29.738Z,7.12
2022-10-16T05:27:26.783Z,7.44
2022-10-16T05:28:23.825Z,7.55
2022-10-16T05:29:21.317Z,7.35
2022-10-16T05:30:18.536Z,7.80
2022-10-16T05:31:15.249Z,7.93
2022-10-16T05:32:12.034Z,7.94
2022-10-16T05:33:08.730Z,7.66
2022-10-16T05:34:05.613Z,7.31
2022-10-16T05:35:02.363Z,8.22
2022-10-16T05:36:04.076Z,8.23
2022-10-16T05:37:00.762Z,8.16
2022-10-16T05:37:57.437Z,7.68
2022-10-16T05:38:54.188Z,8.06
2022-10-16T05:39:50.873Z,7.98
2022-10-16T05:40:57.271Z,7.89
2022-10-16T05:41:54.094Z,7.94
2022-10-16T05:42:50.841Z,7.63
2022-10-16T05:43:47.565Z,7.93
2022-10-16T05:44:44.286Z,7.69
2022-10-16T05:45:40.980Z,7.72
2022-10-16T05:46:37.977Z,7.91
2022-10-16T05:47:34.657Z,7.43
2022-10-16T05:48:31.960Z,8.30
2022-10-16T05:49:28.840Z,8.53
2022-10-16T05:50:25.525Z,8.58
2022-10-16T05:51:22.384Z,8.10
2022-10-16T05:52:19.059Z,8.58
2022-10-16T05:53:15.729Z,8.72
2022-10-16T05:54:12.645Z,8.02
2022-10-16T05:55:09.717Z,8.76
2022-10-16T05:56:08.394Z,8.59
2022-10-16T05:57:06.756Z,8.28
2022-10-16T05:58:03.734Z,8.41
2022-10-16T05:59:00.566Z,7.92
2022-10-16T05:59:57.340Z,8.24
2022-10-16T06:00:58.976Z,8.64
2022-10-16T06:01:55.720Z,8.58
2022-10-16T06:02:52.433Z,8.76
2022-10-16T06:03:49.185Z,9.16
2022-10-16T06:04:45.903Z,9.29
2022-10-16T06:05:43.874Z,8.60
2022-10-16T06:06:40.554Z,8.99
2022-10-16T06:07:37.798Z,9.55
2022-10-16T06:08:34.469Z,9.39
2022-10-16T06:09:31.203Z,9.37
2022-10-16T06:10:27.891Z,9.46
2022-10-16T06:11:27.752Z,9.40
2022-10-16T06:12:24.499Z,9.55
2022-10-16T06:13:21.186Z,9.44
2022-10-16T06:14:17.878Z,9.69
2022-10-16T06:15:14.590Z,9.72
2022-10-16T06:16:11.811Z,9.79
2022-10-16T06:17:08.528Z,9.10
2022-10-16T06:18:05.304Z,9.77
2022-10-16T06:19:02.072Z,9.58
2022-10-16T06:19:58.802Z,9.60
2022-10-16T06:20:56.274Z,9.04
2022-10-16T06:21:53.035Z,9.11
2022-10-16T06:22:49.715Z,9.68
2022-10-16T06:23:49.689Z,9.57
2022-10-16T06:24:47.516Z,9.10
2022-10-16T06:25:44.268Z,9.76
2022-10-16T06:26:40.997Z,9.51
2022-10-16T06:27:41.289Z,9.51
2022-10-16T06:28:39.478Z,9.48
2022-10-16T06:29:36.220Z,9.33
2022-10-16T06:30:32.942Z,9.81
2022-10-16T06:31:32.111Z,9.95
2022-10-16T06:32:28.935Z,9.85
2022-10-16T06:33:25.639Z,9.18
2022-10-16T06:34:22.436Z,8.96
2022-10-16T06:35:19.144Z,9.84
2022-10-16T06:36:18.261Z,9.75
2022-10-16T06:37:14.986Z,9.86
2022-10-16T06:38:11.690Z,9.98
2022-10-16T06:39:08.665Z,9.87
2022-10-16T06:40:05.925Z,9.62
2022-10-16T06:41:02.609Z,9.36
2022-10-16T06:42:57.013Z,9.81
2022-10-16T06:43:53.820Z,9.41
2022-10-16T06:44:50.483Z,10.09
2022-10-16T06:45:55.858Z,10.17
2022-10-16T06:46:52.638Z,9.55
2022-10-16T06:47:49.447Z,8.62
2022-10-16T06:48:46.534Z,9.53
2022-10-16T06:49:43.203Z,9.64
2022-10-16T06:50:39.891Z,9.80
2022-10-16T06:51:40.497Z,9.92
2022-10-16T06:52:39.765Z,9.38
2022-10-16T06:54:01.125Z,10.19
2022-10-16T06:54:55.818Z,9.46
2022-10-16T06:55:52.557Z,10.34
2022-10-16T06:56:49.251Z,10.25
2022-10-16T06:57:48.773Z,10.26
2022-10-16T06:58:46.743Z,10.26
2022-10-16T06:59:46.852Z,10.62
2022-10-16T07:00:43.775Z,10.35
2022-10-16T07:01:40.868Z,9.99
2022-10-16T07:02:37.577Z,9.45
2022-10-16T07:03:37.859Z,10.67
2022-10-16T07:04:34.534Z,10.92
2022-10-16T07:05:31.232Z,11.05
2022-10-16T07:06:31.439Z,10.93
2022-10-16T07:07:28.195Z,10.81
2022-10-16T07:08:24.878Z,10.92
2022-10-16T07:09:21.619Z,10.25
2022-10-16T07:10:18.409Z,10.94
2022-10-16T07:11:18.356Z,11.02
2022-10-16T07:12:15.036Z,10.84
2022-10-16T07:13:14.755Z,11.10
2022-10-16T07:14:20.418Z,10.80
2022-10-16T07:15:17.119Z,10.98
2022-10-16T07:16:19.618Z,10.99
2022-10-16T07:17:16.320Z,10.78
2022-10-16T07:18:13.049Z,10.70
2022-10-16T07:19:09.874Z,11.08
2022-10-16T07:20:07.242Z,11.22
2022-10-16T07:21:06.255Z,11.26
2022-10-16T07:22:04.073Z,11.28
2022-10-16T07:23:00.862Z,10.49
2022-10-16T07:24:00.431Z,10.68
2022-10-16T07:24:57.411Z,10.80
2022-10-16T07:25:57.087Z,10.10
2022-10-16T07:26:53.930Z,10.95
2022-10-16T07:27:50.808Z,10.77
2022-10-16T07:28:47.762Z,10.82
2022-10-16T07:29:44.589Z,10.86
2022-10-16T07:30:41.328Z,10.99
2022-10-16T07:31:38.926Z,10.83
2022-10-16T07:32:35.611Z,10.37
2022-10-16T07:33:33.091Z,10.94
2022-10-16T07:34:29.794Z,11.12
2022-10-16T07:35:26.487Z,11.26
2022-10-16T07:36:23.422Z,11.37
2022-10-16T07:37:20.211Z,11.51
2022-10-16T07:38:17.118Z,11.39
2022-10-16T07:39:13.855Z,11.34
2022-10-16T07:40:10.802Z,11.58
2022-10-16T07:41:10.180Z,11.16
2022-10-16T07:42:07.111Z,11.66
2022-10-16T07:43:06.341Z,11.45
2022-10-16T07:44:04.494Z,11.54
2022-10-16T07:45:01.195Z,11.08
2022-10-16T07:45:59.152Z,11.57
2022-10-16T07:46:58.719Z,11.26
2022-10-16T07:47:56.350Z,11.67
2022-10-16T07:48:53.462Z,10.84
2022-10-16T07:49:50.188Z,11.78
2022-10-16T07:50:46.934Z,11.26
2022-10-16T07:51:43.970Z,11.31
2022-10-16T07:52:40.727Z,11.23
2022-10-16T07:53:37.468Z,11.85
2022-10-16T07:54:34.222Z,11.37
2022-10-16T07:55:30.906Z,11.96
2022-10-16T07:56:27.634Z,12.16
2022-10-16T07:57:24.524Z,12.05
2022-10-16T07:58:21.670Z,11.56
2022-10-16T07:59:18.496Z,11.85
2022-10-16T08:00:15.342Z,12.13
2022-10-16T08:01:15.417Z,12.39
2022-10-16T08:02:12.146Z,12.37
2022-10-16T08:03:09.891Z,12.33
2022-10-16T08:04:07.011Z,12.06
2022-10-16T08:05:03.924Z,12.42
2022-10-16T08:06:01.803Z,12.39
2022-10-16T08:06:58.529Z,12.63
2022-10-16T08:07:55.269Z,12.62
2022-10-16T08:08:52.409Z,12.40
2022-10-16T08:09:52.697Z,12.59
2022-10-16T08:10:49.401Z,12.19
2022-10-16T08:11:46.180Z,12.55
2022-10-16T08:12:42.890Z,12.58
2022-10-16T08:13:39.615Z,12.65
2022-10-16T08:14:36.316Z,12.59
2022-10-16T08:15:33.061Z,12.81
2022-10-16T08:16:29.761Z,12.87
2022-10-16T08:17:26.719Z,12.87
2022-10-16T08:18:24.371Z,12.97
2022-10-16T08:19:21.075Z,12.81
2022-10-16T08:20:17.806Z,12.79
2022-10-16T08:21:21.572Z,12.73
2022-10-16T08:22:18.547Z,13.17
2022-10-16T08:23:15.430Z,13.22
2022-10-16T08:24:12.126Z,13.04
2022-10-16T08:25:09.129Z,13.28
2022-10-16T08:26:08.197Z,13.35
2022-10-16T08:27:05.014Z,13.35
2022-10-16T08:28:01.701Z,13.35
2022-10-16T08:28:58.560Z,13.41
2022-10-16T08:29:55.352Z,13.34
2022-10-16T08:30:52.185Z,13.28
2022-10-16T08:31:48.925Z,13.30
2022-10-16T08:32:45.845Z,13.17
2022-10-16T08:33:47.532Z,13.31
2022-10-16T08:34:44.271Z,13.46
2022-10-16T08:35:41.157Z,13.65
2022-10-16T08:36:38.858Z,13.62
2022-10-16T08:37:35.828Z,13.80
2022-10-16T08:38:33.124Z,13.81
2022-10-16T08:39:29.873Z,13.82
2022-10-16T08:40:32.224Z,13.35
2022-10-16T08:41:47.895Z,13.93
2022-10-16T08:43:31.639Z,13.72
2022-10-16T08:44:34.491Z,14.06
2022-10-16T08:45:46.076Z,14.14
2022-10-16T08:46:57.976Z,14.20
2022-10-16T08:48:01.444Z,14.18
2022-10-16T08:49:01.407Z,13.98
2022-10-16T08:50:02.885Z,14.09
2022-10-16T08:51:02.267Z,13.47
2022-10-16T08:51:59.603Z,14.05
2022-10-16T08:52:57.830Z,14.16
2022-10-16T08:54:23.978Z,14.30
2022-10-16T08:55:45.438Z,14.23
2022-10-16T08:56:42.176Z,14.30
2022-10-16T08:57:38.891Z,14.33
2022-10-16T08:58:35.608Z,14.37
2022-10-16T08:59:32.635Z,14.22
2022-10-16T09:00:31.047Z,14.56
2022-10-16T09:01:48.461Z,14.55
2022-10-16T09:02:56.328Z,14.62
2022-10-16T09:04:29.954Z,14.71
2022-10-16T09:05:29.400Z,14.78
2022-10-16T09:06:45.231Z,14.77
2022-10-16T09:08:15.628Z,14.81
2022-10-16T09:09:37.179Z,14.79
2022-10-16T09:10:39.918Z,14.90
2022-10-16T09:11:51.835Z,14.82
2022-10-16T09:13:09.823Z,14.47
2022-10-16T09:14:26.672Z,14.83
2022-10-16T09:15:23.467Z,14.97
2022-10-16T09:16:32.103Z,14.98
2022-10-16T09:17:53.018Z,14.95
2022-10-16T09:18:56.318Z,14.95
2022-10-16T09:19:58.684Z,15.15
2022-10-16T09:21:20.601Z,15.17
2022-10-16T09:22:19.241Z,14.72
2022-10-16T09:23:25.696Z,15.18
2022-10-16T09:24:29.353Z,15.09
2022-10-16T09:25:26.603Z,15.18
2022-10-16T09:27:21.505Z,15.38
2022-10-16T09:28:19.868Z,15.42
2022-10-16T09:29:21.026Z,15.43
2022-10-16T09:30:20.189Z,15.40
2022-10-16T09:31:20.706Z,14.79
2022-10-16T09:32:21.771Z,15.35
2022-10-16T09:33:23.193Z,15.49
2022-10-16T09:34:33.775Z,15.21
2022-10-16T09:35:40.805Z,15.41
2022-10-16T09:36:44.542Z,14.86
2022-10-16T09:37:45.585Z,15.09
2022-10-16T09:38:42.436Z,15.20
2022-10-16T09:39:47.303Z,15.45
2022-10-16T09:40:44.014Z,15.57
2022-10-16T09:41:44.968Z,15.66
2022-10-16T09:42:42.131Z,15.71
2022-10-16T09:43:50.703Z,15.81
2022-10-16T09:44:54.674Z,15.60
2022-10-16T09:46:07.677Z,15.85
2022-10-16T09:47:05.254Z,15.95
2022-10-16T09:48:11.203Z,15.61
2022-10-16T09:49:27.912Z,15.69
2022-10-16T09:50:29.593Z,15.76
2022-10-16T09:51:27.960Z,15.79
2022-10-16T09:52:25.259Z,15.93
2022-10-16T09:53:23.694Z,15.98
2022-10-16T09:54:22.499Z,15.40
2022-10-16T09:55:19.857Z,15.87
2022-10-16T09:56:26.910Z,15.45
2022-10-16T09:57:25.584Z,15.78
2022-10-16T09:58:26.882Z,15.85
2022-10-16T09:59:29.158Z,15.80
2022-10-16T10:00:26.563Z,14.59
2022-10-16T10:01:30.746Z,15.95
2022-10-16T10:02:39.206Z,15.96
2022-10-16T10:03:41.020Z,15.92
2022-10-16T10:04:50.285Z,15.11
2022-10-16T10:05:50.037Z,15.45
2022-10-16T10:06:51.407Z,15.81
2022-10-16T10:07:57.382Z,15.40
2022-10-16T10:09:05.992Z,15.63
2022-10-16T10:10:06.403Z,15.85
2022-10-16T10:11:03.269Z,15.71
2022-10-16T10:12:00.659Z,15.87
2022-10-16T10:12:58.266Z,16.15
2022-10-16T10:14:07.367Z,15.72
2022-10-16T10:15:20.789Z,16.10
2022-10-16T10:16:25.303Z,16.04
2022-10-16T10:17:31.482Z,16.01
2022-10-16T10:18:28.242Z,16.01
2022-10-16T10:19:28.000Z,15.49
2022-10-16T10:20:33.743Z,16.00
2022-10-16T10:21:33.606Z,14.97
2022-10-16T10:22:32.166Z,16.12
2022-10-16T10:23:33.687Z,16.18
2022-10-16T10:24:30.576Z,16.26
2022-10-16T10:25:47.468Z,16.24
2022-10-16T10:27:07.854Z,16.32
2022-10-16T10:28:22.738Z,16.32
2022-10-16T10:29:30.906Z,16.25
2022-10-16T10:30:31.363Z,16.39
2022-10-16T10:31:39.947Z,16.48
2022-10-16T10:32:57.151Z,16.48
2022-10-16T10:34:22.736Z,16.28
2022-10-16T10:35:28.395Z,16.35
2022-10-16T10:36:38.611Z,16.17
2022-10-16T10:37:50.595Z,16.24
2022-10-16T10:38:50.286Z,16.39
2022-10-16T10:40:02.388Z,15.90
2022-10-16T10:41:20.823Z,16.54
2022-10-16T10:42:24.879Z,16.53
2022-10-16T10:43:24.524Z,16.49
2022-10-16T10:44:46.104Z,16.58
2022-10-16T10:45:48.251Z,16.44
2022-10-16T10:46:56.808Z,16.47
2022-10-16T10:48:22.432Z,16.21
2022-10-16T10:49:33.985Z,16.55
2022-10-16T10:50:53.630Z,16.48
2022-10-16T10:52:18.401Z,16.53
2022-10-16T10:53:53.913Z,16.59
2022-10-16T10:55:03.500Z,16.41
2022-10-16T10:56:27.752Z,16.37
2022-10-16T10:58:52.564Z,16.51
2022-10-16T11:00:05.764Z,16.54
2022-10-16T11:01:07.884Z,16.60
2022-10-16T11:02:04.540Z,16.77
2022-10-16T11:03:13.417Z,16.89
2022-10-16T11:04:37.363Z,16.79
2022-10-16T11:06:16.195Z,16.82
2022-10-16T11:07:35.859Z,16.73
2022-10-16T11:08:49.340Z,16.67
2022-10-16T11:09:53.074Z,15.97
2022-10-16T11:11:04.920Z,17.03
2022-10-16T11:12:22.507Z,16.96
2022-10-16T11:13:44.364Z,16.80
2022-10-16T11:14:43.723Z,16.99
2022-10-16T11:15:44.696Z,16.96
2022-10-16T11:16:58.419Z,17.03
2022-10-16T11:18:04.141Z,17.06
2022-10-16T11:19:10.569Z,17.10
2022-10-16T11:20:20.861Z,17.06
2022-10-16T11:21:21.826Z,16.58
2022-10-16T11:22:24.316Z,16.96
2022-10-16T11:23:34.741Z,17.02
2022-10-16T11:24:43.920Z,16.65
2022-10-16T11:25:40.656Z,17.08
2022-10-16T11:26:44.808Z,16.44
2022-10-16T11:28:32.325Z,17.10
2022-10-16T11:29:34.393Z,17.16
2022-10-16T11:30:40.118Z,16.66
2022-10-16T11:31:45.757Z,17.02
2022-10-16T11:33:09.785Z,16.96
2022-10-16T11:34:37.643Z,17.07
2022-10-16T11:35:44.782Z,17.12
2022-10-16T11:36:53.943Z,17.08
2022-10-16T11:37:57.540Z,16.85
2022-10-16T11:39:18.148Z,17.23
2022-10-16T11:40:27.154Z,17.30
2022-10-16T11:41:43.623Z,17.34
2022-10-16T11:42:52.950Z,17.30
2022-10-16T11:44:23.457Z,17.31
2022-10-16T11:45:37.167Z,17.33
2022-10-16T11:46:58.290Z,17.36
2022-10-16T11:48:20.767Z,17.42
2022-10-16T11:49:25.151Z,17.48
2022-10-16T11:50:39.668Z,17.40
2022-10-16T11:51:49.723Z,17.30
2022-10-16T11:53:10.876Z,17.33
2022-10-16T11:54:36.618Z,17.38
2022-10-16T11:55:46.966Z,17.27
2022-10-16T11:56:48.720Z,17.29
2022-10-16T11:58:03.956Z,17.37
2022-10-16T11:59:34.527Z,17.25
2022-10-16T12:00:54.135Z,17.44
2022-10-16T12:02:18.558Z,17.49
2022-10-16T12:03:40.967Z,17.38
2022-10-16T12:05:00.619Z,17.57
2022-10-16T12:06:12.132Z,17.61
2022-10-16T12:07:15.907Z,17.03
2022-10-16T12:08:16.207Z,17.04
2022-10-16T12:09:28.909Z,17.53
2022-10-16T12:10:30.151Z,17.22
2022-10-16T12:11:29.901Z,17.43
2022-10-16T12:12:31.704Z,17.54
2022-10-16T12:13:40.026Z,17.65
2022-10-16T12:15:04.356Z,17.58
2022-10-16T12:16:12.733Z,17.52
2022-10-16T12:17:21.011Z,17.63
2022-10-16T12:18:25.852Z,17.69
2022-10-16T12:19:27.613Z,17.63
2022-10-16T12:20:28.823Z,17.71
2022-10-16T12:21:32.553Z,17.74
2022-10-16T12:22:32.978Z,17.72
2022-10-16T12:23:30.212Z,17.64
2022-10-16T12:24:43.239Z,17.52
2022-10-16T12:25:47.320Z,17.17
2022-10-16T12:26:47.595Z,17.73
2022-10-16T12:27:44.524Z,17.62
2022-10-16T12:28:41.898Z,17.70
2022-10-16T12:29:46.025Z,17.69
2022-10-16T12:30:53.088Z,17.68
2022-10-16T12:31:54.844Z,17.19
2022-10-16T12:33:07.823Z,17.63
2022-10-16T12:34:05.671Z,17.59
2022-10-16T12:35:05.966Z,17.32
2022-10-16T12:36:09.081Z,17.61
2022-10-16T12:37:15.761Z,17.31
2022-10-16T12:38:46.087Z,17.63
2022-10-16T12:39:43.420Z,17.64
2022-10-16T12:40:40.513Z,16.67
2022-10-16T12:41:41.018Z,17.51
2022-10-16T12:42:37.759Z,17.65
2022-10-16T12:43:43.190Z,17.68
2022-10-16T12:44:39.898Z,17.59
2022-10-16T12:45:36.717Z,16.97
2022-10-16T12:46:40.539Z,17.74
2022-10-16T12:47:48.365Z,17.77
2022-10-16T12:49:02.200Z,17.82
2022-10-16T12:50:07.252Z,17.87
2022-10-16T12:51:25.812Z,17.88
2022-10-16T12:52:29.464Z,17.23
2022-10-16T12:53:27.728Z,17.91
2022-10-16T12:54:39.725Z,17.96
2022-10-16T12:55:53.113Z,17.52
2022-10-16T12:57:24.131Z,17.96
2022-10-16T12:58:29.727Z,17.90
2022-10-16T12:59:46.001Z,17.93
2022-10-16T13:00:51.996Z,17.96
2022-10-16T13:02:15.017Z,17.37
2022-10-16T13:03:39.669Z,18.00
2022-10-16T13:05:02.974Z,18.05
2022-10-16T13:06:14.517Z,18.06
2022-10-16T13:07:32.726Z,18.04
2022-10-16T13:09:01.513Z,18.04
2022-10-16T13:10:22.296Z,18.03
2022-10-16T13:11:33.599Z,18.06
2022-10-16T13:12:41.884Z,18.11
2022-10-16T13:13:41.374Z,18.07
2022-10-16T13:14:59.305Z,18.14
2022-10-16T13:16:19.137Z,18.09
2022-10-16T13:17:25.207Z,18.14
2022-10-16T13:18:31.798Z,18.18
2022-10-16T13:19:42.986Z,18.15
2022-10-16T13:20:59.387Z,17.18
2022-10-16T13:22:19.309Z,18.11
2022-10-16T13:23:26.480Z,18.04
2022-10-16T13:24:31.866Z,18.05
2022-10-16T13:25:44.533Z,18.11
2022-10-16T13:27:19.153Z,17.95
2022-10-16T13:28:22.470Z,18.11
2022-10-16T13:29:21.597Z,17.26
2022-10-16T13:30:26.819Z,17.72
2022-10-16T13:31:27.219Z,18.03
2022-10-16T13:32:24.179Z,17.29
2022-10-16T13:33:45.856Z,17.67
2022-10-16T13:34:49.687Z,17.65
2022-10-16T13:35:55.443Z,17.90
2022-10-16T13:36:54.405Z,18.06
2022-10-16T13:37:51.950Z,18.04
2022-10-16T13:38:49.303Z,17.44